Terminal Aerodrome Forecast
Issued by NWS

Home | Current Version | Previous Version | Text Only | Print | Product List | Glossary On
Versions: 1 2 3 4 5 6 7 8 9 10 11 12 13 14 15 16 17
000
FTUS43 KDDC 211300 AAA
TAFHYS
TAF AMD
KHYS 211327Z 2113/2212 06010KT P6SM BKN120
     FM211500 01015G25KT P6SM SCT060
     FM212100 04011KT P6SM SKC=

USA.gov is the U.S. government's official web portal to all federal, state and local government web resources and services.